Time;durP1;ratioP1;P1;durP2;ratioP2;P2;SDS_P1;SDS_P2;PMS_P1;PMS_P2;Temp;Humidity;BMP_temperature;BMP_pressure;BME280_temperature;BME280_humidity;BME280_pressure;Samples;Min_cycle;Max_cycle;Signal;HPM_P1;HPM_P2
2022/04/22 00:01:36;;;;;;;;;;;11.60;99.90;;;;;;5060249;28;19917;-76
2022/04/22 00:04:03;;;;;;;;;;;11.60;99.90;;;;;;5056507;28;19908;-72
2022/04/22 00:06:29;;;;;;;;;;;11.60;99.90;;;;;;5065864;28;19919;-77
2022/04/22 00:08:55;;;;;;;;;;;11.60;99.90;;;;;;5074720;28;19965;-75
2022/04/22 00:11:29;;;;;;;;;;;11.60;99.90;;;;;;5072960;28;20168;-75
2022/04/22 00:13:59;;;;;;;;;;;11.60;99.90;;;;;;5066239;28;19917;-76
2022/04/22 00:16:25;;;;;;;;;;;11.50;99.90;;;;;;5059772;28;19928;-81
2022/04/22 00:18:50;;;;;;;;;;;11.50;99.90;;;;;;5076333;28;19909;-75
2022/04/22 00:21:16;;;;;;;;;;;11.60;99.90;;;;;;5073508;28;20196;-78
2022/04/22 00:23:41;;;;;;;;;;;11.60;99.90;;;;;;5074747;28;19919;-75
2022/04/22 00:26:07;;;;;;;;;;;11.60;99.90;;;;;;5074623;28;19917;-80
2022/04/22 00:28:33;;;;;;;;;;;11.50;99.90;;;;;;5072346;28;20058;-78
2022/04/22 00:30:58;;;;;;;;;;;11.50;99.90;;;;;;5072270;28;19912;-76
2022/04/22 00:33:24;;;;;;;;;;;11.50;99.90;;;;;;5074017;28;20250;-77
2022/04/22 00:35:49;;;;;;;;;;;11.50;99.90;;;;;;5061141;28;20205;-79
2022/04/22 00:38:15;;;;;;;;;;;11.50;99.90;;;;;;5065899;28;19916;-76
2022/04/22 00:40:41;;;;;;;;;;;11.60;99.90;;;;;;5075210;28;19919;-76
2022/04/22 00:43:21;;;;;;;;;;;11.60;99.90;;;;;;5072845;28;19920;-78
2022/04/22 00:45:46;;;;;;;;;;;11.60;99.90;;;;;;5074304;28;19947;-75
2022/04/22 00:48:12;;;;;;;;;;;11.60;99.90;;;;;;5074131;28;19951;-74
2022/04/22 00:50:39;;;;;;;;;;;11.60;99.90;;;;;;5074689;28;19912;-76
2022/04/22 00:53:05;;;;;;;;;;;11.60;99.90;;;;;;5073671;28;20311;-80
2022/04/22 00:55:31;;;;;;;;;;;11.60;99.90;;;;;;5074226;28;20303;-77
2022/04/22 00:57:58;;;;;;;;;;;11.50;99.90;;;;;;5073858;28;19958;-81
2022/04/22 01:00:23;;;;;;;;;;;11.50;99.90;;;;;;5072840;28;19912;-76
2022/04/22 01:02:49;;;;;;;;;;;11.50;99.90;;;;;;5074343;28;19919;-77
2022/04/22 01:10:43;;;;;;;;;;;11.30;99.90;;;;;;5071959;28;19920;-80
2022/04/22 01:13:08;;;;;;;;;;;11.20;99.90;;;;;;5071641;28;19912;-76
2022/04/22 01:15:37;;;;;;;;;;;11.20;99.90;;;;;;5062432;28;19960;-77
2022/04/22 01:18:03;;;;;;;;;;;11.20;99.90;;;;;;5064406;28;19916;-80
2022/04/22 01:20:29;;;;;;;;;;;11.20;99.90;;;;;;5068505;28;19936;-77
2022/04/22 01:22:54;;;;;;;;;;;11.10;99.90;;;;;;5057194;28;20324;-76
2022/04/22 01:25:20;;;;;;;;;;;11.00;99.90;;;;;;5063955;28;19912;-78
2022/04/22 01:27:49;;;;;;;;;;;11.00;99.90;;;;;;5073823;28;19919;-75
2022/04/22 01:30:16;;;;;;;;;;;11.00;99.90;;;;;;5059578;28;19974;-77
2022/04/22 01:32:41;;;;;;;;;;;11.00;99.90;;;;;;5070049;28;19923;-78
2022/04/22 01:35:07;;;;;;;;;;;11.00;99.90;;;;;;5070570;28;19916;-78
2022/04/22 01:37:33;;;;;;;;;;;11.00;99.90;;;;;;5082484;28;19916;-77
2022/04/22 01:39:58;;;;;;;;;;;11.00;99.90;;;;;;5064575;28;19924;-76
2022/04/22 01:42:24;;;;;;;;;;;11.00;99.90;;;;;;5064340;28;19957;-77
2022/04/22 01:44:49;;;;;;;;;;;11.00;99.90;;;;;;5070507;28;19916;-78
2022/04/22 01:47:15;;;;;;;;;;;11.00;99.90;;;;;;5056822;28;19916;-75
2022/04/22 01:49:40;;;;;;;;;;;11.00;99.90;;;;;;5055138;28;20278;-77
2022/04/22 01:52:07;;;;;;;;;;;11.10;99.90;;;;;;5072436;28;20011;-73
2022/04/22 01:54:32;;;;;;;;;;;11.00;99.90;;;;;;5075402;28;19909;-71
2022/04/22 01:56:58;;;;;;;;;;;11.10;99.90;;;;;;5058490;28;20342;-76
2022/04/22 01:59:23;;;;;;;;;;;11.00;99.90;;;;;;5069972;28;20292;-78
2022/04/22 02:01:49;;;;;;;;;;;11.00;99.90;;;;;;5075413;28;19913;-75
2022/04/22 02:04:14;;;;;;;;;;;11.00;99.90;;;;;;5074435;28;19916;-78
2022/04/22 02:06:40;;;;;;;;;;;11.00;99.90;;;;;;5062739;28;19919;-77
2022/04/22 02:09:05;;;;;;;;;;;11.00;99.90;;;;;;5065976;28;20030;-75
2022/04/22 02:11:32;;;;;;;;;;;11.00;99.90;;;;;;5068039;28;20318;-81
2022/04/22 02:13:58;;;;;;;;;;;10.90;99.90;;;;;;5075505;28;19954;-78
2022/04/22 02:16:23;;;;;;;;;;;10.90;99.90;;;;;;5071560;28;19921;-79
2022/04/22 02:18:49;;;;;;;;;;;10.90;99.90;;;;;;5073219;28;19959;-80
2022/04/22 02:21:15;;;;;;;;;;;10.80;99.90;;;;;;5078539;28;19999;-77
2022/04/22 02:23:40;;;;;;;;;;;10.70;99.90;;;;;;5078803;28;20338;-75
2022/04/22 02:26:06;;;;;;;;;;;10.70;99.90;;;;;;5074431;28;19927;-79
2022/04/22 02:28:32;;;;;;;;;;;10.60;99.90;;;;;;5076498;28;19909;-79
2022/04/22 02:31:01;;;;;;;;;;;10.60;99.90;;;;;;5076580;28;19913;-76
2022/04/22 02:33:27;;;;;;;;;;;10.50;99.90;;;;;;5071195;28;20252;-81
2022/04/22 02:35:53;;;;;;;;;;;10.50;99.90;;;;;;5077551;28;19917;-78
2022/04/22 02:38:18;;;;;;;;;;;10.40;99.90;;;;;;5075768;28;19913;-79
2022/04/22 02:46:12;;;;;;;;;;;10.30;99.90;;;;;;5066196;28;20058;-74
2022/04/22 02:48:38;;;;;;;;;;;10.20;99.90;;;;;;5075049;28;19947;-75
2022/04/22 02:51:03;;;;;;;;;;;10.20;99.90;;;;;;5072445;28;19978;-76
2022/04/22 02:53:29;;;;;;;;;;;10.10;99.90;;;;;;5077977;28;19908;-78
2022/04/22 02:55:55;;;;;;;;;;;10.10;99.90;;;;;;5070560;28;19928;-73
2022/04/22 02:58:20;;;;;;;;;;;10.20;99.90;;;;;;5068269;28;20266;-76
2022/04/22 03:00:46;;;;;;;;;;;10.10;99.90;;;;;;5074922;28;19920;-76
2022/04/22 03:03:11;;;;;;;;;;;10.10;99.90;;;;;;5075687;28;19947;-75
2022/04/22 03:05:37;;;;;;;;;;;10.10;99.90;;;;;;5077872;28;19908;-79
2022/04/22 03:08:03;;;;;;;;;;;10.00;99.90;;;;;;5071700;28;19939;-76
2022/04/22 03:10:29;;;;;;;;;;;10.00;99.90;;;;;;5068208;28;19912;-77
2022/04/22 03:12:55;;;;;;;;;;;10.00;99.90;;;;;;5073792;28;19916;-75
2022/04/22 03:15:21;;;;;;;;;;;10.00;99.90;;;;;;5076019;28;19927;-75
2022/04/22 03:17:46;;;;;;;;;;;9.90;99.90;;;;;;5074764;28;19959;-72
2022/04/22 03:20:12;;;;;;;;;;;9.90;99.90;;;;;;5065945;28;19927;-73
2022/04/22 03:22:37;;;;;;;;;;;9.90;99.90;;;;;;5072914;28;19958;-76
2022/04/22 03:25:03;;;;;;;;;;;9.70;99.90;;;;;;5074281;28;20284;-79
2022/04/22 03:27:29;;;;;;;;;;;9.80;99.90;;;;;;5062089;28;19962;-77
2022/04/22 03:29:54;;;;;;;;;;;9.70;99.90;;;;;;5069116;28;19924;-73
2022/04/22 03:32:20;;;;;;;;;;;9.70;99.90;;;;;;5075340;28;19912;-70
2022/04/22 03:34:45;;;;;;;;;;;9.70;99.90;;;;;;5076370;28;19932;-75
2022/04/22 03:37:11;;;;;;;;;;;9.60;99.90;;;;;;5075759;28;19916;-76
2022/04/22 03:39:36;;;;;;;;;;;9.50;99.90;;;;;;5071640;28;20004;-78
2022/04/22 03:42:02;;;;;;;;;;;9.40;99.90;;;;;;5063356;28;19924;-80
2022/04/22 03:44:28;;;;;;;;;;;9.40;99.90;;;;;;5056837;28;20322;-76
2022/04/22 03:46:53;;;;;;;;;;;9.40;99.90;;;;;;5058896;28;19917;-77
2022/04/22 03:49:19;;;;;;;;;;;9.30;99.90;;;;;;5076852;28;19917;-78
2022/04/22 03:51:45;;;;;;;;;;;9.40;99.90;;;;;;5074869;28;20391;-79
2022/04/22 03:54:11;;;;;;;;;;;9.50;99.90;;;;;;5075975;28;19923;-80
2022/04/22 03:59:20;;;;;;;;;;;9.50;99.90;;;;;;5068106;28;19962;-78
2022/04/22 04:01:46;;;;;;;;;;;9.40;99.90;;;;;;5077000;28;19912;-73
2022/04/22 04:04:11;;;;;;;;;;;9.40;99.90;;;;;;5073964;28;19916;-79
2022/04/22 04:06:37;;;;;;;;;;;9.40;99.90;;;;;;5076563;28;19995;-77
2022/04/22 04:17:16;;;;;;;;;;;9.30;99.90;;;;;;5072980;28;19931;-81
2022/04/22 04:25:17;;;;;;;;;;;9.40;99.90;;;;;;5064955;28;19931;-77
2022/04/22 04:27:45;;;;;;;;;;;9.40;99.90;;;;;;5071942;28;20299;-78
2022/04/22 04:30:10;;;;;;;;;;;9.40;99.90;;;;;;5070236;28;20004;-76
2022/04/22 04:32:36;;;;;;;;;;;9.30;99.90;;;;;;5069538;28;19972;-79
2022/04/22 04:35:01;;;;;;;;;;;9.30;99.90;;;;;;5070099;28;19947;-79
2022/04/22 04:37:27;;;;;;;;;;;9.30;99.90;;;;;;5051909;28;19920;-79
2022/04/22 04:39:56;;;;;;;;;;;9.20;99.90;;;;;;5071664;28;19920;-75
2022/04/22 04:42:23;;;;;;;;;;;9.30;99.90;;;;;;5073740;28;20341;-75
2022/04/22 04:44:49;;;;;;;;;;;9.20;99.90;;;;;;5069183;28;19912;-78
2022/04/22 04:47:15;;;;;;;;;;;9.30;99.90;;;;;;5072033;28;20310;-75
2022/04/22 04:49:40;;;;;;;;;;;9.30;99.90;;;;;;5073308;28;20295;-81
2022/04/22 04:52:06;;;;;;;;;;;9.20;99.90;;;;;;5074614;28;19912;-76
2022/04/22 04:54:32;;;;;;;;;;;9.30;99.90;;;;;;5067265;28;19927;-76
2022/04/22 04:56:58;;;;;;;;;;;9.30;99.90;;;;;;5070263;28;20031;-80
2022/04/22 04:59:24;;;;;;;;;;;9.30;99.90;;;;;;5070594;28;19912;-80
2022/04/22 05:01:49;;;;;;;;;;;9.30;99.90;;;;;;5072989;28;20211;-80
2022/04/22 05:04:15;;;;;;;;;;;9.40;99.90;;;;;;5074253;28;19913;-73
2022/04/22 05:06:41;;;;;;;;;;;9.30;99.90;;;;;;5072623;28;20219;-81
2022/04/22 05:09:06;;;;;;;;;;;9.30;99.90;;;;;;5071166;28;19971;-78
2022/04/22 05:11:32;;;;;;;;;;;9.40;99.90;;;;;;5073164;28;19920;-76
2022/04/22 05:13:58;;;;;;;;;;;9.40;99.90;;;;;;5074624;28;19916;-76
2022/04/22 05:16:24;;;;;;;;;;;9.40;99.90;;;;;;5074810;28;19917;-76
2022/04/22 05:18:49;;;;;;;;;;;9.40;99.90;;;;;;5073354;28;19917;-76
2022/04/22 05:21:15;;;;;;;;;;;9.40;99.90;;;;;;5072733;28;19962;-75
2022/04/22 05:23:40;;;;;;;;;;;9.40;99.90;;;;;;5074466;28;19916;-75
2022/04/22 05:26:06;;;;;;;;;;;9.50;99.90;;;;;;5075720;28;19912;-76
2022/04/22 05:28:32;;;;;;;;;;;9.50;99.90;;;;;;5074698;28;19913;-78
2022/04/22 05:33:43;;;;;;;;;;;9.60;99.90;;;;;;5069922;28;19924;-77
2022/04/22 05:36:09;;;;;;;;;;;9.60;99.90;;;;;;5074029;28;19945;-73
2022/04/22 05:38:34;;;;;;;;;;;9.60;99.90;;;;;;5075281;28;20007;-77
2022/04/22 05:41:00;;;;;;;;;;;9.60;99.90;;;;;;5058302;28;19913;-77
2022/04/22 05:43:25;;;;;;;;;;;9.60;99.90;;;;;;5055353;28;19920;-79
2022/04/22 05:45:51;;;;;;;;;;;9.60;99.90;;;;;;5055208;28;19913;-79
2022/04/22 05:48:17;;;;;;;;;;;9.60;99.90;;;;;;5071787;28;19960;-74
2022/04/22 05:50:42;;;;;;;;;;;9.60;99.90;;;;;;5077111;28;20270;-77
2022/04/22 05:53:08;;;;;;;;;;;9.70;99.90;;;;;;5076351;28;19947;-76
2022/04/22 05:55:33;;;;;;;;;;;9.70;99.90;;;;;;5069079;28;19912;-77
2022/04/22 05:57:59;;;;;;;;;;;9.70;99.90;;;;;;5077122;28;19919;-77
2022/04/22 06:00:25;;;;;;;;;;;9.80;99.90;;;;;;5073391;28;19916;-79
2022/04/22 06:02:52;;;;;;;;;;;9.70;99.90;;;;;;5076288;28;20231;-75
2022/04/22 06:05:20;;;;;;;;;;;9.80;99.90;;;;;;5073487;28;19999;-79
2022/04/22 06:07:46;;;;;;;;;;;9.70;99.90;;;;;;5075686;28;19923;-75
2022/04/22 06:12:57;;;;;;;;;;;9.80;99.90;;;;;;5077922;28;19919;-77
2022/04/22 06:15:23;;;;;;;;;;;9.90;99.90;;;;;;5062349;28;19917;-78
2022/04/22 06:17:48;;;;;;;;;;;9.90;99.90;;;;;;5043310;28;19920;-81
2022/04/22 06:20:14;;;;;;;;;;;9.90;99.90;;;;;;5074955;28;19969;-73
2022/04/22 06:22:40;;;;;;;;;;;9.90;99.90;;;;;;5089348;28;19920;-79
2022/04/22 06:25:06;;;;;;;;;;;9.90;99.90;;;;;;5074894;28;20302;-75
2022/04/22 06:27:35;;;;;;;;;;;10.00;99.90;;;;;;5076956;28;19919;-81
2022/04/22 06:30:05;;;;;;;;;;;9.90;99.90;;;;;;5072738;28;19957;-76
2022/04/22 06:32:30;;;;;;;;;;;10.00;99.90;;;;;;5071805;28;19916;-78
2022/04/22 06:34:56;;;;;;;;;;;10.10;99.90;;;;;;5075255;28;20317;-76
2022/04/22 06:37:22;;;;;;;;;;;10.00;99.90;;;;;;5071347;28;19920;-76
2022/04/22 06:48:00;;;;;;;;;;;10.10;99.90;;;;;;5071055;28;20329;-79
2022/04/22 06:50:26;;;;;;;;;;;10.20;99.90;;;;;;5063414;28;19921;-77
2022/04/22 06:52:51;;;;;;;;;;;10.30;99.90;;;;;;5057881;28;19909;-77
2022/04/22 06:55:17;;;;;;;;;;;10.30;99.90;;;;;;5068758;28;19919;-75
2022/04/22 06:57:49;;;;;;;;;;;10.40;99.90;;;;;;5070146;28;19924;-77
2022/04/22 07:00:15;;;;;;;;;;;10.50;99.90;;;;;;5074269;28;19917;-73
2022/04/22 07:02:41;;;;;;;;;;;10.50;99.90;;;;;;5077589;28;19916;-76
2022/04/22 07:05:07;;;;;;;;;;;10.60;99.90;;;;;;5077071;28;19916;-76
2022/04/22 07:07:32;;;;;;;;;;;10.60;99.90;;;;;;5077527;28;19915;-77
2022/04/22 07:09:58;;;;;;;;;;;10.70;99.90;;;;;;5077602;28;19908;-75
2022/04/22 07:12:26;;;;;;;;;;;10.90;99.90;;;;;;5077154;28;19937;-77
2022/04/22 07:14:57;;;;;;;;;;;11.30;99.90;;;;;;5077105;28;19951;-75
2022/04/22 07:17:23;;;;;;;;;;;11.50;99.90;;;;;;5077278;28;19917;-75
2022/04/22 07:19:48;;;;;;;;;;;11.60;99.90;;;;;;5075067;28;19969;-71
2022/04/22 07:22:14;;;;;;;;;;;11.60;99.90;;;;;;5050708;28;20026;-75
2022/04/22 07:24:39;;;;;;;;;;;11.80;99.90;;;;;;5075675;28;19908;-75
2022/04/22 07:27:05;;;;;;;;;;;12.00;99.90;;;;;;5076415;28;19920;-76
2022/04/22 07:29:32;;;;;;;;;;;12.30;99.90;;;;;;5076621;28;19920;-78
2022/04/22 07:31:58;;;;;;;;;;;12.30;99.90;;;;;;5074750;28;19912;-74
2022/04/22 07:34:24;;;;;;;;;;;12.40;99.90;;;;;;5075179;28;20326;-77
2022/04/22 07:36:49;;;;;;;;;;;12.40;99.90;;;;;;5071689;28;19923;-80
2022/04/22 07:39:15;;;;;;;;;;;12.30;99.90;;;;;;5074074;28;19920;-78
2022/04/22 07:41:42;;;;;;;;;;;12.40;99.90;;;;;;5044390;28;20007;-79
2022/04/22 07:46:58;;;;;;;;;;;12.50;99.90;;;;;;5076199;28;20309;-73
2022/04/22 07:49:25;;;;;;;;;;;12.80;99.90;;;;;;5075701;28;19913;-73
2022/04/22 07:51:50;;;;;;;;;;;12.60;99.90;;;;;;5075877;28;19909;-78
2022/04/22 07:54:16;;;;;;;;;;;12.70;99.90;;;;;;5075900;28;19919;-75
2022/04/22 07:56:42;;;;;;;;;;;12.70;99.90;;;;;;5074377;28;20365;-76
2022/04/22 07:59:08;;;;;;;;;;;12.90;99.90;;;;;;5074698;28;19960;-75
2022/04/22 08:01:34;;;;;;;;;;;12.70;99.90;;;;;;5062129;28;20051;-73
2022/04/22 08:03:59;;;;;;;;;;;12.60;99.90;;;;;;5075663;28;19909;-77
2022/04/22 08:06:25;;;;;;;;;;;12.70;99.90;;;;;;5075622;28;19991;-77
2022/04/22 08:08:50;;;;;;;;;;;12.90;99.90;;;;;;5075612;28;19936;-78
2022/04/22 08:11:16;;;;;;;;;;;13.10;99.90;;;;;;5066268;28;20019;-78
2022/04/22 08:13:41;;;;;;;;;;;13.00;99.90;;;;;;5072117;28;20262;-77
2022/04/22 08:16:07;;;;;;;;;;;13.00;99.90;;;;;;5075255;28;20011;-76
2022/04/22 08:18:33;;;;;;;;;;;12.90;99.90;;;;;;5075913;28;19912;-75
2022/04/22 08:20:58;;;;;;;;;;;13.00;99.90;;;;;;5075606;28;20238;-74
2022/04/22 08:23:24;;;;;;;;;;;13.30;99.90;;;;;;5075189;28;19908;-79
2022/04/22 08:25:49;;;;;;;;;;;13.60;99.90;;;;;;5076026;28;19915;-74
2022/04/22 08:28:15;;;;;;;;;;;13.80;99.90;;;;;;5076200;28;19919;-76
2022/04/22 08:30:41;;;;;;;;;;;14.10;99.90;;;;;;5076193;28;19919;-76
2022/04/22 08:33:06;;;;;;;;;;;14.10;99.90;;;;;;5075224;28;20364;-78
2022/04/22 08:35:35;;;;;;;;;;;14.00;99.90;;;;;;5074868;28;20031;-79
2022/04/22 08:38:03;;;;;;;;;;;14.10;99.90;;;;;;5055795;28;20276;-76
2022/04/22 08:40:30;;;;;;;;;;;14.00;99.90;;;;;;5056796;28;19916;-77
2022/04/22 08:42:57;;;;;;;;;;;14.10;99.90;;;;;;5068375;28;20007;-78
2022/04/22 08:45:25;;;;;;;;;;;14.10;99.90;;;;;;5070498;28;19919;-77
2022/04/22 08:50:35;;;;;;;;;;;14.30;99.90;;;;;;5075790;28;20016;-79
2022/04/22 08:53:05;;;;;;;;;;;14.40;99.90;;;;;;5057883;28;20303;-72
2022/04/22 08:55:32;;;;;;;;;;;14.20;99.90;;;;;;5074133;28;20489;-76
2022/04/22 08:57:58;;;;;;;;;;;14.10;99.90;;;;;;5060227;28;19920;-72
2022/04/22 09:00:27;;;;;;;;;;;14.20;99.90;;;;;;5074417;28;20319;-72
2022/04/22 09:02:56;;;;;;;;;;;14.60;99.90;;;;;;5075482;28;19908;-71
2022/04/22 09:05:21;;;;;;;;;;;14.60;99.90;;;;;;5075607;28;20334;-71
2022/04/22 09:07:47;;;;;;;;;;;14.70;99.90;;;;;;5074523;28;19912;-72
2022/04/22 09:10:13;;;;;;;;;;;14.80;99.90;;;;;;5075475;28;19915;-72
2022/04/22 09:12:42;;;;;;;;;;;14.60;99.90;;;;;;5075270;28;19908;-71
2022/04/22 09:15:09;;;;;;;;;;;14.70;99.90;;;;;;5075740;28;19909;-72
2022/04/22 09:17:36;;;;;;;;;;;14.70;99.90;;;;;;5074798;28;19924;-71
2022/04/22 09:20:03;;;;;;;;;;;15.00;99.90;;;;;;5074330;28;19918;-71
2022/04/22 09:22:29;;;;;;;;;;;15.00;99.90;;;;;;5074076;28;19962;-70
2022/04/22 09:24:55;;;;;;;;;;;15.20;99.90;;;;;;5078355;28;19909;-71
2022/04/22 09:27:48;;;;;;;;;;;15.20;99.90;;;;;;5058348;28;20008;-71
2022/04/22 09:30:13;;;;;;;;;;;15.30;99.90;;;;;;5057428;28;19958;-71
2022/04/22 09:32:40;;;;;;;;;;;15.40;99.90;;;;;;5059287;28;19913;-72
2022/04/22 09:35:12;;;;;;;;;;;15.40;99.90;;;;;;5057923;28;20058;-74
2022/04/22 09:43:23;;;;;;;;;;;15.00;99.90;;;;;;5079101;28;19915;-71
2022/04/22 09:45:50;;;;;;;;;;;15.00;99.90;;;;;;5075764;28;19920;-71
2022/04/22 09:48:19;;;;;;;;;;;15.20;99.90;;;;;;5064672;28;19921;-72
2022/04/22 09:50:47;;;;;;;;;;;15.30;99.90;;;;;;5076449;28;19919;-72
2022/04/22 09:53:14;;;;;;;;;;;15.30;99.90;;;;;;5078899;28;19962;-80
2022/04/22 09:55:47;;;;;;;;;;;15.30;99.90;;;;;;5077272;28;20254;-72
2022/04/22 09:58:20;;;;;;;;;;;15.20;99.90;;;;;;5090573;28;19951;-71
2022/04/22 10:00:47;;;;;;;;;;;15.30;99.90;;;;;;5071478;28;19959;-73
2022/04/22 10:03:13;;;;;;;;;;;15.40;99.90;;;;;;5078416;28;20211;-71
2022/04/22 10:05:39;;;;;;;;;;;15.50;99.90;;;;;;5078508;28;19912;-73
2022/04/22 10:08:05;;;;;;;;;;;15.30;99.90;;;;;;5076989;28;19912;-70
2022/04/22 10:10:32;;;;;;;;;;;15.50;99.90;;;;;;5074496;28;20372;-71
2022/04/22 10:13:01;;;;;;;;;;;15.70;99.90;;;;;;5060954;28;20195;-71
2022/04/22 10:15:27;;;;;;;;;;;15.90;99.90;;;;;;5057336;28;19920;-72
2022/04/22 10:17:53;;;;;;;;;;;16.00;99.90;;;;;;5043857;28;19928;-70
2022/04/22 10:20:19;;;;;;;;;;;16.10;99.90;;;;;;5075491;28;19912;-71
2022/04/22 10:22:47;;;;;;;;;;;16.10;99.90;;;;;;5078088;28;19915;-71
2022/04/22 10:25:13;;;;;;;;;;;16.10;99.90;;;;;;5078438;28;20071;-72
2022/04/22 10:27:39;;;;;;;;;;;16.50;99.90;;;;;;5077914;28;19908;-72
2022/04/22 10:30:09;;;;;;;;;;;16.70;99.90;;;;;;5069634;28;19915;-71
2022/04/22 10:32:36;;;;;;;;;;;16.60;99.90;;;;;;5058003;28;19917;-71
2022/04/22 10:35:03;;;;;;;;;;;16.80;99.90;;;;;;5058101;28;19917;-72
2022/04/22 10:37:28;;;;;;;;;;;16.50;99.90;;;;;;5062988;28;20007;-72
2022/04/22 10:39:55;;;;;;;;;;;16.10;99.90;;;;;;5074735;28;19959;-71
2022/04/22 10:42:30;;;;;;;;;;;16.30;99.90;;;;;;5077742;28;19939;-71
2022/04/22 10:47:44;;;;;;;;;;;15.80;99.90;;;;;;5060252;28;20004;-71
2022/04/22 10:50:23;;;;;;;;;;;15.90;99.90;;;;;;5072687;28;19915;-71
2022/04/22 10:53:01;;;;;;;;;;;16.10;99.90;;;;;;5056794;28;20004;-72
2022/04/22 10:55:27;;;;;;;;;;;16.20;99.40;;;;;;5059021;28;20003;-71
2022/04/22 10:58:13;;;;;;;;;;;15.90;99.20;;;;;;5062731;28;20019;-71
2022/04/22 11:00:46;;;;;;;;;;;16.20;99.90;;;;;;5063445;28;19912;-71
2022/04/22 11:03:19;;;;;;;;;;;16.40;98.90;;;;;;5077841;28;19916;-72
2022/04/22 11:05:46;;;;;;;;;;;16.60;99.50;;;;;;5077383;28;20318;-71
2022/04/22 11:08:25;;;;;;;;;;;16.60;99.90;;;;;;5076265;28;20023;-72
2022/04/22 11:10:53;;;;;;;;;;;16.50;96.70;;;;;;5076457;28;19925;-72
2022/04/22 11:13:29;;;;;;;;;;;16.80;99.30;;;;;;5076430;28;20303;-71
2022/04/22 11:16:14;;;;;;;;;;;17.10;99.20;;;;;;5076136;28;19931;-71
2022/04/22 11:18:40;;;;;;;;;;;17.10;97.90;;;;;;5077396;28;20211;-71
2022/04/22 11:21:19;;;;;;;;;;;16.80;97.20;;;;;;5077129;28;19916;-70
2022/04/22 11:23:45;;;;;;;;;;;16.90;98.30;;;;;;5077489;28;19908;-71
2022/04/22 11:26:12;;;;;;;;;;;16.80;98.20;;;;;;5065887;28;19913;-71
2022/04/22 11:28:38;;;;;;;;;;;16.60;95.70;;;;;;5056191;28;19909;-77
2022/04/22 11:31:07;;;;;;;;;;;16.70;97.10;;;;;;5059698;28;19990;-71
2022/04/22 11:33:53;;;;;;;;;;;16.80;96.30;;;;;;5068427;28;19917;-77
2022/04/22 11:36:19;;;;;;;;;;;17.00;98.10;;;;;;5082822;28;19921;-71
2022/04/22 11:38:49;;;;;;;;;;;17.10;95.80;;;;;;5057023;28;19939;-72
2022/04/22 11:41:15;;;;;;;;;;;17.10;95.50;;;;;;5061360;28;20265;-71
2022/04/22 11:43:41;;;;;;;;;;;17.10;95.00;;;;;;5075910;28;19912;-71
2022/04/22 11:46:07;;;;;;;;;;;17.00;96.00;;;;;;5066712;28;19920;-72
2022/04/22 11:48:33;;;;;;;;;;;16.90;94.90;;;;;;5056789;28;19909;-71
2022/04/22 11:51:01;;;;;;;;;;;17.00;97.40;;;;;;5064072;28;19919;-72
2022/04/22 11:53:29;;;;;;;;;;;17.40;96.10;;;;;;5076834;28;19912;-76
2022/04/22 11:55:54;;;;;;;;;;;17.20;95.10;;;;;;5073065;28;20323;-74
2022/04/22 11:58:21;;;;;;;;;;;17.30;96.10;;;;;;5073704;28;19919;-83
2022/04/22 12:06:17;;;;;;;;;;;17.00;94.90;;;;;;5076524;28;19924;-78
2022/04/22 12:08:51;;;;;;;;;;;17.10;94.60;;;;;;5061678;28;19924;-79
2022/04/22 12:11:17;;;;;;;;;;;17.20;96.10;;;;;;5073172;28;20319;-75
2022/04/22 12:13:42;;;;;;;;;;;17.30;96.20;;;;;;5072880;28;19923;-77
2022/04/22 12:16:08;;;;;;;;;;;17.40;95.80;;;;;;5070192;28;19916;-80
2022/04/22 12:18:35;;;;;;;;;;;17.60;94.00;;;;;;5055168;28;19913;-80
2022/04/22 12:21:00;;;;;;;;;;;17.60;94.80;;;;;;5074924;28;19912;-80
2022/04/22 12:23:36;;;;;;;;;;;17.60;95.50;;;;;;5074576;28;19920;-73
2022/04/22 12:26:02;;;;;;;;;;;17.60;93.40;;;;;;5074968;28;20297;-78
2022/04/22 12:28:28;;;;;;;;;;;17.70;94.20;;;;;;5074395;28;19916;-79
2022/04/22 12:30:54;;;;;;;;;;;17.70;93.40;;;;;;5073388;28;19917;-79
2022/04/22 12:33:23;;;;;;;;;;;17.80;92.80;;;;;;5066363;28;19948;-85
2022/04/22 12:35:49;;;;;;;;;;;17.70;93.50;;;;;;5055935;28;19909;-78
2022/04/22 12:38:15;;;;;;;;;;;17.70;95.00;;;;;;5064103;28;19916;-79
2022/04/22 12:40:48;;;;;;;;;;;17.70;93.60;;;;;;5075618;28;19912;-76
2022/04/22 12:43:32;;;;;;;;;;;17.60;93.70;;;;;;5068564;28;20363;-75
2022/04/22 12:52:08;;;;;;;;;;;17.80;92.30;;;;;;5060070;28;19962;-79
2022/04/22 12:54:34;;;;;;;;;;;17.80;94.20;;;;;;5073919;28;19963;-76
2022/04/22 12:57:00;;;;;;;;;;;17.60;93.60;;;;;;5072718;28;19960;-78
2022/04/22 12:59:42;;;;;;;;;;;17.70;92.60;;;;;;5050152;28;19921;-79
2022/04/22 13:02:09;;;;;;;;;;;17.70;94.00;;;;;;5074690;28;20196;-78
2022/04/22 13:04:48;;;;;;;;;;;17.90;94.60;;;;;;5058269;28;19913;-77
2022/04/22 13:07:14;;;;;;;;;;;18.10;93.80;;;;;;5063279;28;20219;-79
2022/04/22 13:09:39;;;;;;;;;;;18.20;93.80;;;;;;5074389;28;19909;-80
2022/04/22 13:12:05;;;;;;;;;;;18.00;92.90;;;;;;5064892;28;20272;-81
2022/04/22 13:14:30;;;;;;;;;;;18.10;94.00;;;;;;5075681;28;19912;-78
2022/04/22 13:16:56;;;;;;;;;;;18.00;92.20;;;;;;5075047;28;19921;-81
2022/04/22 13:19:21;;;;;;;;;;;18.00;93.90;;;;;;5071937;28;20022;-82
2022/04/22 13:21:47;;;;;;;;;;;17.80;93.30;;;;;;5073528;28;20196;-78
2022/04/22 13:24:13;;;;;;;;;;;17.40;93.40;;;;;;5075474;28;20224;-77
2022/04/22 13:26:39;;;;;;;;;;;17.50;95.40;;;;;;5074305;28;19978;-80
2022/04/22 13:29:05;;;;;;;;;;;17.70;93.30;;;;;;5064584;28;19956;-79
2022/04/22 13:31:32;;;;;;;;;;;17.70;94.40;;;;;;5054796;28;19916;-77
2022/04/22 13:33:57;;;;;;;;;;;18.00;92.80;;;;;;5055878;28;19909;-76
2022/04/22 13:36:23;;;;;;;;;;;17.80;93.60;;;;;;5056427;28;19963;-79
2022/04/22 13:38:48;;;;;;;;;;;17.60;93.30;;;;;;5071519;28;19922;-73
2022/04/22 13:41:14;;;;;;;;;;;17.80;95.40;;;;;;5074077;28;19925;-81
2022/04/22 13:43:40;;;;;;;;;;;17.60;92.50;;;;;;5071267;28;19913;-74
2022/04/22 13:54:18;;;;;;;;;;;17.60;94.30;;;;;;5075432;28;19958;-73
2022/04/22 13:56:44;;;;;;;;;;;17.90;92.80;;;;;;5073692;28;19916;-80
2022/04/22 13:59:09;;;;;;;;;;;18.10;94.20;;;;;;5075209;28;19908;-76
2022/04/22 14:01:36;;;;;;;;;;;18.10;92.80;;;;;;5074911;28;19931;-81
2022/04/22 14:04:02;;;;;;;;;;;17.80;93.60;;;;;;5073986;28;19908;-81
2022/04/22 14:06:28;;;;;;;;;;;17.50;93.70;;;;;;5075078;28;19908;-78
2022/04/22 14:08:53;;;;;;;;;;;17.40;94.10;;;;;;5057180;28;19919;-78
2022/04/22 14:11:19;;;;;;;;;;;17.30;92.80;;;;;;5076523;28;19999;-77
2022/04/22 14:13:45;;;;;;;;;;;17.30;94.40;;;;;;5075838;28;20299;-81
2022/04/22 14:16:11;;;;;;;;;;;17.30;94.80;;;;;;5074182;28;20600;-74
2022/04/22 14:18:37;;;;;;;;;;;17.30;95.80;;;;;;5078912;28;19966;-79
2022/04/22 14:21:03;;;;;;;;;;;17.20;94.10;;;;;;5077452;28;19908;-72
2022/04/22 14:23:32;;;;;;;;;;;17.10;93.50;;;;;;5061802;28;20265;-82
2022/04/22 14:25:57;;;;;;;;;;;17.10;95.00;;;;;;5058374;28;19909;-79
2022/04/22 14:28:23;;;;;;;;;;;16.90;94.10;;;;;;5057465;28;20283;-81
2022/04/22 14:30:52;;;;;;;;;;;16.90;94.80;;;;;;5058263;28;20220;-77
2022/04/22 14:33:19;;;;;;;;;;;16.90;95.20;;;;;;5058369;28;19909;-78
2022/04/22 14:35:45;;;;;;;;;;;16.90;95.50;;;;;;5057070;28;19912;-80
2022/04/22 14:38:10;;;;;;;;;;;16.90;96.20;;;;;;5060012;28;20629;-78
2022/04/22 14:40:36;;;;;;;;;;;16.90;95.70;;;;;;5063787;28;19923;-75
2022/04/22 14:43:02;;;;;;;;;;;16.90;95.10;;;;;;5075514;28;19909;-77
2022/04/22 14:45:29;;;;;;;;;;;16.90;95.30;;;;;;5076335;28;19908;-76
2022/04/22 14:47:56;;;;;;;;;;;16.80;94.80;;;;;;5076074;28;19916;-77
2022/04/22 14:50:22;;;;;;;;;;;16.80;94.00;;;;;;5075337;28;19920;-76
2022/04/22 14:52:48;;;;;;;;;;;16.80;95.60;;;;;;5076299;28;19909;-76
2022/04/22 14:55:14;;;;;;;;;;;16.90;94.80;;;;;;5077091;28;19912;-76
2022/04/22 14:57:39;;;;;;;;;;;16.90;94.30;;;;;;5074436;28;20323;-77
2022/04/22 15:00:09;;;;;;;;;;;16.80;95.00;;;;;;5074173;28;20007;-74
2022/04/22 15:02:38;;;;;;;;;;;16.80;95.30;;;;;;5074477;28;19920;-74
2022/04/22 15:05:08;;;;;;;;;;;16.80;96.40;;;;;;5074854;28;20383;-79
2022/04/22 15:07:34;;;;;;;;;;;16.70;95.20;;;;;;5075902;28;19908;-74
2022/04/22 15:10:00;;;;;;;;;;;16.70;96.00;;;;;;5075387;28;19915;-73
2022/04/22 15:12:28;;;;;;;;;;;16.70;97.20;;;;;;5070486;28;20015;-80
2022/04/22 15:14:53;;;;;;;;;;;16.80;96.50;;;;;;5063653;28;19912;-75
2022/04/22 15:25:32;;;;;;;;;;;17.10;95.90;;;;;;5073964;28;19959;-75
2022/04/22 15:27:59;;;;;;;;;;;17.10;96.00;;;;;;5075190;28;19959;-75
2022/04/22 15:30:45;;;;;;;;;;;17.20;97.10;;;;;;5070286;28;19916;-76
2022/04/22 15:33:11;;;;;;;;;;;16.90;95.30;;;;;;5067399;28;19912;-77
2022/04/22 15:35:36;;;;;;;;;;;16.80;95.70;;;;;;5070095;28;19961;-75
2022/04/22 15:38:02;;;;;;;;;;;16.80;96.80;;;;;;5072660;28;20019;-72
2022/04/22 15:40:27;;;;;;;;;;;16.80;96.70;;;;;;5056214;28;19923;-75